Terminal Aerodrome Forecast
Issued by NWS Nashville, TN

Home | Current Version | Previous Version | Text Only | Print | Product List | Glossary On
Versions: 1 2 3 4 5 6 7 8 9 10 11 12 13 14 15 16 17 18 19
000
FTUS44 KOHX 020200 AAB
TAFBNA
TAF AMD
KBNA 020229Z 0202/0224 19003KT 3/4SM -RA BR BKN007 OVC015
     FM021200 03009KT 2SM -RA BR OVC010
     FM021700 04009KT P6SM BKN025
     FM022300 04006KT P6SM OVC050=

USA.gov is the U.S. government's official web portal to all federal, state and local government web resources and services.